createdAt,value
2023-04-12T05:18:48.447Z,7.89
2023-04-12T05:19:52.185Z,8.00
2023-04-12T05:20:55.038Z,8.18
2023-04-12T05:21:58.310Z,8.37
2023-04-12T05:23:01.275Z,8.57
2023-04-12T05:24:04.299Z,8.78
2023-04-12T05:25:08.942Z,8.96
2023-04-12T05:26:16.197Z,9.13
2023-04-12T05:27:22.399Z,9.29
2023-04-12T05:28:25.831Z,9.44
2023-04-12T05:29:29.334Z,9.60
2023-04-12T05:30:32.656Z,9.77
2023-04-12T05:31:36.604Z,9.92
2023-04-12T05:32:41.614Z,10.07
2023-04-12T05:33:45.216Z,10.21
2023-04-12T05:34:49.122Z,10.32
2023-04-12T05:35:52.753Z,10.40
2023-04-12T05:36:55.732Z,10.46
2023-04-12T05:37:59.174Z,10.49
2023-04-12T05:39:02.114Z,10.51
2023-04-12T05:40:09.917Z,10.52
2023-04-12T05:41:13.325Z,10.53
2023-04-12T05:42:16.656Z,10.53
2023-04-12T05:43:20.037Z,10.54
2023-04-12T05:44:23.039Z,10.56
2023-04-12T05:45:26.328Z,10.57
2023-04-12T05:46:29.400Z,10.59
2023-04-12T05:47:32.398Z,10.61
2023-04-12T05:48:35.322Z,10.63
2023-04-12T05:49:38.422Z,10.66
2023-04-12T05:50:51.652Z,10.70
2023-04-12T05:51:54.593Z,10.74
2023-04-12T05:53:00.533Z,10.78
2023-04-12T05:54:08.278Z,10.80
2023-04-12T05:55:12.185Z,10.82
2023-04-12T05:56:17.558Z,10.84
2023-04-12T05:57:21.039Z,10.85
2023-04-12T05:58:24.783Z,10.87
2023-04-12T05:59:29.655Z,10.88
2023-04-12T06:00:33.252Z,10.92
2023-04-12T06:01:36.347Z,10.97
2023-04-12T06:02:40.269Z,11.03
2023-04-12T06:03:43.737Z,11.09
2023-04-12T06:04:51.132Z,11.14
2023-04-12T06:05:56.066Z,11.20
2023-04-12T06:07:00.671Z,11.26
2023-04-12T06:08:05.421Z,11.29
2023-04-12T06:09:10.020Z,11.32
2023-04-12T06:10:14.907Z,11.35
2023-04-12T06:11:17.954Z,11.38
2023-04-12T06:12:20.884Z,11.41
2023-04-12T06:13:24.134Z,11.43
2023-04-12T06:14:27.106Z,11.46
2023-04-12T06:15:32.099Z,11.48
2023-04-12T06:16:35.074Z,11.51
2023-04-12T06:17:38.977Z,11.56
2023-04-12T06:18:42.154Z,11.60
2023-04-12T06:19:45.303Z,11.63
2023-04-12T06:20:48.252Z,11.66
2023-04-12T06:21:51.690Z,11.68
2023-04-12T06:22:56.014Z,11.71
2023-04-12T06:23:59.028Z,11.73
2023-04-12T06:25:01.985Z,11.76
2023-04-12T06:26:05.764Z,11.79
2023-04-12T06:27:09.246Z,11.81
2023-04-12T06:28:12.122Z,11.81
2023-04-12T06:29:20.832Z,11.81
2023-04-12T06:30:23.736Z,11.84
2023-04-12T06:31:29.810Z,11.88
2023-04-12T06:32:32.955Z,11.91
2023-04-12T06:33:37.025Z,11.95
2023-04-12T06:34:44.199Z,11.98
2023-04-12T06:35:50.649Z,12.00
2023-04-12T06:36:53.581Z,11.99
2023-04-12T06:37:56.419Z,11.99
2023-04-12T06:38:59.449Z,12.00
2023-04-12T06:40:02.423Z,12.01
2023-04-12T06:41:05.997Z,12.03
2023-04-12T06:42:08.813Z,12.05
2023-04-12T06:43:19.156Z,12.05
2023-04-12T06:44:22.021Z,12.07
2023-04-12T06:45:24.884Z,12.10
2023-04-12T06:46:28.906Z,12.13
2023-04-12T06:47:32.713Z,12.16
2023-04-12T06:48:35.699Z,12.17
2023-04-12T06:49:39.214Z,12.16
2023-04-12T06:50:41.987Z,12.15
2023-04-12T06:51:44.995Z,12.15
2023-04-12T06:52:48.831Z,12.15
2023-04-12T06:53:51.660Z,12.16
2023-04-12T06:54:57.036Z,12.18
2023-04-12T06:56:04.117Z,12.17
2023-04-12T06:57:13.285Z,12.17
2023-04-12T06:58:16.173Z,12.18
2023-04-12T06:59:18.984Z,12.20
2023-04-12T07:00:22.502Z,12.22
2023-04-12T07:01:25.590Z,12.22
2023-04-12T07:02:28.581Z,12.22
2023-04-12T07:03:33.438Z,12.22
2023-04-12T07:04:36.671Z,12.21
2023-04-12T07:05:39.947Z,12.20
2023-04-12T07:06:42.937Z,12.18
2023-04-12T07:07:45.907Z,12.17
2023-04-12T07:08:49.618Z,12.16
2023-04-12T07:09:53.154Z,12.15
2023-04-12T07:10:56.161Z,12.14
2023-04-12T07:12:01.150Z,12.14
2023-04-12T07:13:07.204Z,12.15
2023-04-12T07:14:09.977Z,12.16
2023-04-12T07:15:12.762Z,12.17
2023-04-12T07:16:15.739Z,12.17
2023-04-12T07:17:19.099Z,12.18
2023-04-12T07:18:22.140Z,12.18
2023-04-12T07:19:25.063Z,12.18
2023-04-12T07:20:27.887Z,12.19
2023-04-12T07:21:30.778Z,12.19
2023-04-12T07:22:33.820Z,12.18
2023-04-12T07:23:36.799Z,12.17
2023-04-12T07:24:39.796Z,12.15
2023-04-12T07:25:42.666Z,12.13
2023-04-12T07:26:45.538Z,12.13
2023-04-12T07:27:49.903Z,12.13
2023-04-12T07:28:54.916Z,12.15
2023-04-12T07:29:58.861Z,12.17
2023-04-12T07:31:04.759Z,12.16
2023-04-12T07:32:10.894Z,12.15
2023-04-12T07:33:19.702Z,12.13
2023-04-12T07:34:24.331Z,12.12
2023-04-12T07:35:27.417Z,12.11
2023-04-12T07:36:31.357Z,12.11
2023-04-12T07:37:34.228Z,12.11
2023-04-12T07:38:37.048Z,12.12
2023-04-12T07:39:41.016Z,12.13
2023-04-12T07:40:44.030Z,12.16
2023-04-12T07:41:48.400Z,12.18
2023-04-12T07:42:51.225Z,12.21
2023-04-12T07:43:54.084Z,12.23
2023-04-12T07:44:56.973Z,12.25
2023-04-12T07:45:59.898Z,12.27
2023-04-12T07:47:02.746Z,12.29
2023-04-12T07:48:06.819Z,12.29
2023-04-12T07:49:10.734Z,12.31
2023-04-12T07:50:13.974Z,12.32
2023-04-12T07:51:16.789Z,12.34
2023-04-12T07:52:19.593Z,12.34
2023-04-12T07:53:26.248Z,12.34
2023-04-12T07:54:29.272Z,12.34
2023-04-12T07:55:32.060Z,12.32
2023-04-12T07:56:36.173Z,12.29
2023-04-12T07:57:38.990Z,12.27
2023-04-12T07:58:41.825Z,12.25
2023-04-12T07:59:44.725Z,12.24
2023-04-12T08:00:48.445Z,12.24
2023-04-12T08:01:52.592Z,12.24
2023-04-12T08:02:57.071Z,12.27
2023-04-12T08:04:00.558Z,12.29
2023-04-12T08:05:04.773Z,12.32
2023-04-12T08:06:08.624Z,12.37
2023-04-12T08:07:11.706Z,12.42
2023-04-12T08:08:14.597Z,12.46
2023-04-12T08:09:17.391Z,12.50
2023-04-12T08:10:20.399Z,12.51
2023-04-12T08:11:23.300Z,12.54
2023-04-12T08:12:26.231Z,12.59
2023-04-12T08:13:29.026Z,12.62
2023-04-12T08:14:31.869Z,12.65
2023-04-12T08:15:34.914Z,12.68
2023-04-12T08:16:37.863Z,12.72
2023-04-12T08:17:43.919Z,12.77
2023-04-12T08:18:46.926Z,12.82
2023-04-12T08:19:49.963Z,12.85
2023-04-12T08:20:53.311Z,12.90
2023-04-12T08:21:56.830Z,12.93
2023-04-12T08:22:59.913Z,12.96
2023-04-12T08:24:03.084Z,12.98
2023-04-12T08:25:06.819Z,13.01
2023-04-12T08:26:09.980Z,13.03
2023-04-12T08:27:13.956Z,13.05
2023-04-12T08:28:17.026Z,13.06
2023-04-12T08:29:19.925Z,13.06
2023-04-12T08:30:27.031Z,13.05
2023-04-12T08:31:30.389Z,13.05
2023-04-12T08:32:50.857Z,13.06
2023-04-12T08:33:53.910Z,13.08
2023-04-12T08:34:56.879Z,13.09
2023-04-12T08:36:00.256Z,13.10
2023-04-12T08:37:03.336Z,13.09
2023-04-12T08:38:07.968Z,13.08
2023-04-12T08:39:11.224Z,13.08
2023-04-12T08:40:14.485Z,13.10
2023-04-12T08:41:18.383Z,13.10
2023-04-12T08:42:22.230Z,13.07
2023-04-12T08:43:29.142Z,13.03
2023-04-12T08:44:37.033Z,12.97
2023-04-12T08:45:40.004Z,12.89
2023-04-12T08:46:44.169Z,12.83
2023-04-12T08:47:47.166Z,12.79
2023-04-12T08:48:54.231Z,12.76
2023-04-12T08:49:57.395Z,12.74
2023-04-12T08:51:00.600Z,12.73
2023-04-12T08:52:08.384Z,12.75
2023-04-12T08:53:11.860Z,12.78
2023-04-12T08:54:16.009Z,12.82
2023-04-12T08:55:18.926Z,12.86
2023-04-12T08:56:23.511Z,12.89
2023-04-12T08:57:27.071Z,12.92
2023-04-12T08:58:31.308Z,12.96
2023-04-12T08:59:39.263Z,12.99
2023-04-12T09:00:42.954Z,12.99
2023-04-12T09:01:46.174Z,12.97
2023-04-12T09:02:49.708Z,12.93
2023-04-12T09:03:52.861Z,12.89
2023-04-12T09:04:56.165Z,12.86
2023-04-12T09:06:03.344Z,12.84
2023-04-12T09:07:07.039Z,12.79
2023-04-12T09:08:10.271Z,12.75
2023-04-12T09:09:13.171Z,12.73
2023-04-12T09:10:35.220Z,12.72
2023-04-12T09:11:38.947Z,12.75
2023-04-12T09:12:47.906Z,12.78
2023-04-12T09:13:51.383Z,12.83
2023-04-12T09:15:12.839Z,12.86
2023-04-12T09:16:17.227Z,12.89
2023-04-12T09:17:27.903Z,12.92
2023-04-12T09:18:30.990Z,12.92
2023-04-12T09:19:36.071Z,12.94
2023-04-12T09:20:39.324Z,12.97
2023-04-12T09:21:57.778Z,12.98
2023-04-12T09:23:02.790Z,12.97
2023-04-12T09:24:14.852Z,12.97
2023-04-12T09:25:18.524Z,12.97
2023-04-12T09:26:31.632Z,12.98
2023-04-12T09:27:52.558Z,12.99
2023-04-12T09:28:55.440Z,13.00
2023-04-12T09:30:10.760Z,12.99
2023-04-12T09:31:19.370Z,12.99
2023-04-12T09:32:27.505Z,12.96
2023-04-12T09:33:48.531Z,12.92
2023-04-12T09:35:00.564Z,12.87
2023-04-12T09:36:13.536Z,12.87
2023-04-12T09:37:17.195Z,12.89
2023-04-12T09:38:20.582Z,12.92
2023-04-12T09:39:42.210Z,12.96
2023-04-12T09:40:45.199Z,13.03
2023-04-12T09:41:48.221Z,13.05
2023-04-12T09:42:56.261Z,13.05
2023-04-12T09:44:00.503Z,13.04
2023-04-12T09:45:24.398Z,13.01
2023-04-12T09:46:27.868Z,12.97
2023-04-12T09:47:39.638Z,12.93
2023-04-12T09:48:50.284Z,12.88
2023-04-12T09:49:53.252Z,12.83
2023-04-12T09:51:00.293Z,12.79
2023-04-12T09:52:03.658Z,12.74
2023-04-12T09:53:17.280Z,12.71
2023-04-12T09:54:20.962Z,12.71
2023-04-12T09:55:25.834Z,12.76
2023-04-12T09:56:32.375Z,12.83
2023-04-12T09:57:39.857Z,12.91
2023-04-12T09:58:44.681Z,12.97
2023-04-12T09:59:51.551Z,13.02
2023-04-12T10:00:57.011Z,13.07
2023-04-12T10:02:00.701Z,13.12
2023-04-12T10:03:05.231Z,13.13
2023-04-12T10:04:09.981Z,13.11
2023-04-12T10:05:16.173Z,13.09
2023-04-12T10:06:20.572Z,13.09
2023-04-12T10:07:23.739Z,13.11
2023-04-12T10:08:27.170Z,13.15
2023-04-12T10:09:30.211Z,13.21
2023-04-12T10:10:33.509Z,13.26
2023-04-12T10:11:40.606Z,13.32
2023-04-12T10:12:46.535Z,13.34
2023-04-12T10:13:52.288Z,13.37
2023-04-12T10:14:55.474Z,13.39
2023-04-12T10:16:01.084Z,13.42
2023-04-12T10:17:05.698Z,13.47
2023-04-12T10:18:11.391Z,13.54
2023-04-12T10:19:15.076Z,13.61
2023-04-12T10:20:19.593Z,13.68
2023-04-12T10:21:23.594Z,13.75
2023-04-12T10:22:27.165Z,13.84
2023-04-12T10:23:33.002Z,13.92
2023-04-12T10:24:38.648Z,14.01
2023-04-12T10:25:45.036Z,14.09
2023-04-12T10:26:50.503Z,14.15
2023-04-12T10:27:53.804Z,14.22
2023-04-12T10:29:24.512Z,14.28
2023-04-12T10:30:30.091Z,14.34
2023-04-12T10:31:34.352Z,14.36
2023-04-12T10:32:37.736Z,14.35
2023-04-12T10:33:42.938Z,14.34
2023-04-12T10:34:51.067Z,14.31
2023-04-12T10:36:06.925Z,14.28
2023-04-12T10:37:10.244Z,14.26
2023-04-12T10:38:13.169Z,14.27
2023-04-12T10:39:16.413Z,14.28
2023-04-12T10:40:19.661Z,14.31
2023-04-12T10:41:22.889Z,14.35
2023-04-12T10:42:29.784Z,14.40
2023-04-12T10:43:36.332Z,14.43
2023-04-12T10:44:39.860Z,14.44
2023-04-12T10:45:43.178Z,14.46
2023-04-12T10:46:46.463Z,14.50
2023-04-12T10:47:49.520Z,14.56
2023-04-12T10:48:53.884Z,14.63
2023-04-12T10:50:30.225Z,14.70
2023-04-12T10:51:37.791Z,14.74
2023-04-12T10:53:09.190Z,14.75
2023-04-12T10:54:12.472Z,14.78
2023-04-12T10:55:28.227Z,14.77
2023-04-12T10:56:34.044Z,14.70
2023-04-12T10:57:43.692Z,14.64
2023-04-12T10:58:49.797Z,14.60
2023-04-12T10:59:59.593Z,14.59
2023-04-12T11:01:11.959Z,14.63
2023-04-12T11:02:16.731Z,14.69
2023-04-12T11:03:28.980Z,14.76
2023-04-12T11:04:32.407Z,14.80
2023-04-12T11:06:12.787Z,14.85
2023-04-12T11:07:43.911Z,14.92
2023-04-12T11:10:20.029Z,15.03
2023-04-12T11:11:27.392Z,15.05
2023-04-12T11:12:31.042Z,15.05
2023-04-12T11:13:38.782Z,15.06
2023-04-12T11:14:46.746Z,15.10
2023-04-12T11:15:56.518Z,15.14
2023-04-12T11:17:06.135Z,15.18
2023-04-12T11:18:09.486Z,15.20
2023-04-12T11:19:13.166Z,15.20
2023-04-12T11:20:16.474Z,15.19
2023-04-12T11:21:20.053Z,15.20
2023-04-12T11:22:26.118Z,15.23
2023-04-12T11:23:29.584Z,15.27
2023-04-12T11:24:33.706Z,15.28
2023-04-12T11:25:37.468Z,15.27
2023-04-12T11:26:41.050Z,15.24
2023-04-12T11:27:54.912Z,15.20
2023-04-12T11:28:59.456Z,15.16
2023-04-12T11:30:03.014Z,15.13
2023-04-12T11:31:07.555Z,15.09
2023-04-12T11:32:14.159Z,15.05
2023-04-12T11:33:32.321Z,15.02
2023-04-12T11:34:36.800Z,15.00
2023-04-12T11:35:43.780Z,14.98
2023-04-12T11:36:48.171Z,14.96
2023-04-12T11:37:51.354Z,14.93
2023-04-12T11:38:57.155Z,14.91
2023-04-12T11:40:00.553Z,14.89
2023-04-12T11:41:07.112Z,14.87
2023-04-12T11:42:15.907Z,14.85
2023-04-12T11:43:20.675Z,14.80
2023-04-12T11:44:24.408Z,14.76
2023-04-12T11:45:29.455Z,14.72
2023-04-12T11:46:35.971Z,14.68
2023-04-12T11:47:43.712Z,14.65
2023-04-12T11:48:47.253Z,14.62
2023-04-12T11:49:53.285Z,14.58
2023-04-12T11:51:10.324Z,14.54
2023-04-12T11:52:16.107Z,14.52
2023-04-12T11:53:19.743Z,14.51
2023-04-12T11:54:29.787Z,14.50
2023-04-12T11:55:32.851Z,14.48
2023-04-12T11:56:37.665Z,14.47
2023-04-12T11:57:40.898Z,14.43
2023-04-12T11:58:47.913Z,14.39
2023-04-12T11:59:51.217Z,14.36
2023-04-12T12:00:57.468Z,14.33
2023-04-12T12:02:13.836Z,14.30
2023-04-12T12:03:25.588Z,14.27
2023-04-12T12:04:30.576Z,14.23
2023-04-12T12:05:37.463Z,14.21
2023-04-12T12:06:41.445Z,14.18
2023-04-12T12:07:44.676Z,14.15
2023-04-12T12:08:51.684Z,14.12
2023-04-12T12:09:55.487Z,14.09
2023-04-12T12:11:07.313Z,14.07
2023-04-12T12:12:12.812Z,14.05
2023-04-12T12:13:16.077Z,14.03
2023-04-12T12:14:23.566Z,14.01
2023-04-12T12:15:32.945Z,14.01
2023-04-12T12:16:36.431Z,14.01
2023-04-12T12:17:40.150Z,14.02
2023-04-12T12:18:44.727Z,14.02
2023-04-12T12:19:48.516Z,14.03
2023-04-12T12:20:51.660Z,14.03
2023-04-12T12:21:55.187Z,14.02
2023-04-12T12:22:58.356Z,14.03
2023-04-12T12:24:02.373Z,14.04
2023-04-12T12:25:06.887Z,14.04
2023-04-12T12:26:18.877Z,14.03
2023-04-12T12:27:24.808Z,14.01
2023-04-12T12:28:27.807Z,14.00
2023-04-12T12:29:38.352Z,13.99
2023-04-12T12:30:41.458Z,14.00
2023-04-12T12:31:50.511Z,13.99
2023-04-12T12:32:53.628Z,14.02
2023-04-12T12:33:58.544Z,14.03
2023-04-12T12:35:02.048Z,14.06
2023-04-12T12:36:06.801Z,14.09
2023-04-12T12:37:13.680Z,14.13
2023-04-12T12:38:16.578Z,14.20
2023-04-12T12:39:19.841Z,14.29
2023-04-12T12:40:32.511Z,14.37
2023-04-12T12:41:36.599Z,14.50
2023-04-12T12:42:54.783Z,14.68
2023-04-12T12:43:58.320Z,14.98
2023-04-12T12:45:04.682Z,15.26
2023-04-12T12:46:07.906Z,15.58
2023-04-12T12:47:14.332Z,15.82
2023-04-12T12:48:21.100Z,16.07
2023-04-12T12:49:24.327Z,16.32
2023-04-12T12:50:29.539Z,16.60
2023-04-12T12:51:33.301Z,16.93
2023-04-12T12:52:36.454Z,17.27
2023-04-12T12:53:40.970Z,17.58
2023-04-12T12:54:44.033Z,17.86
2023-04-12T12:55:47.392Z,18.13
2023-04-12T12:56:50.478Z,18.38
2023-04-12T12:58:07.265Z,18.65
2023-04-12T12:59:11.793Z,18.97
2023-04-12T13:00:16.407Z,19.23
2023-04-12T13:01:19.518Z,19.43
2023-04-12T13:02:22.814Z,19.57
2023-04-12T13:03:26.120Z,19.75
2023-04-12T13:04:29.952Z,19.98
2023-04-12T13:05:33.190Z,20.19
2023-04-12T13:06:36.206Z,20.40
2023-04-12T13:07:39.498Z,20.52
2023-04-12T13:08:42.879Z,20.52
2023-04-12T13:09:46.610Z,20.46
2023-04-12T13:10:50.702Z,20.36
2023-04-12T13:11:53.845Z,20.22
2023-04-12T13:12:56.827Z,20.05
2023-04-12T13:13:59.886Z,19.88
2023-04-12T13:15:20.127Z,19.73
2023-04-12T13:16:26.994Z,19.63
2023-04-12T13:17:31.613Z,19.67
2023-04-12T13:18:34.577Z,19.80
2023-04-12T13:19:38.036Z,19.98
2023-04-12T13:20:41.469Z,20.20
2023-04-12T13:21:44.579Z,20.41
2023-04-12T13:22:48.203Z,20.58
2023-04-12T13:23:51.196Z,20.59
2023-04-12T13:24:55.406Z,20.48
2023-04-12T13:25:58.318Z,20.29
2023-04-12T13:27:01.215Z,20.11
2023-04-12T13:28:04.763Z,20.01
2023-04-12T13:29:07.729Z,20.03
2023-04-12T13:30:11.663Z,20.16
2023-04-12T13:31:14.588Z,20.42
2023-04-12T13:32:18.709Z,20.72
2023-04-12T13:33:22.334Z,21.04
2023-04-12T13:34:25.995Z,21.29
2023-04-12T13:35:29.002Z,21.47
2023-04-12T13:36:32.222Z,21.67
2023-04-12T13:37:35.140Z,21.90
2023-04-12T13:38:38.494Z,22.14
2023-04-12T13:39:41.607Z,22.40
2023-04-12T13:40:44.605Z,22.63
2023-04-12T13:41:47.684Z,22.79
2023-04-12T13:42:50.696Z,22.84
2023-04-12T13:43:53.838Z,22.78
2023-04-12T13:44:57.058Z,22.77
2023-04-12T13:46:00.400Z,22.79
2023-04-12T13:47:04.704Z,22.79
2023-04-12T13:48:07.811Z,22.71
2023-04-12T13:49:11.668Z,22.64
2023-04-12T13:50:14.647Z,22.60
2023-04-12T13:51:18.156Z,22.59
2023-04-12T13:52:21.517Z,22.60
2023-04-12T13:53:24.544Z,22.65
2023-04-12T13:54:27.778Z,22.70
2023-04-12T13:55:30.888Z,22.68
2023-04-12T13:56:33.940Z,22.64
2023-04-12T13:57:37.006Z,22.63
2023-04-12T13:58:40.133Z,22.66
2023-04-12T13:59:43.279Z,22.71
2023-04-12T14:00:46.252Z,22.75
2023-04-12T14:01:49.922Z,22.83
2023-04-12T14:02:54.128Z,22.95
2023-04-12T14:03:57.205Z,23.01
2023-04-12T14:05:00.838Z,22.89
2023-04-12T14:06:03.904Z,22.60
2023-04-12T14:07:06.955Z,22.21
2023-04-12T14:08:09.867Z,21.77
2023-04-12T14:09:30.551Z,21.32
2023-04-12T14:10:33.630Z,20.75
2023-04-12T14:11:47.369Z,20.29
2023-04-12T14:12:50.452Z,19.78
2023-04-12T14:13:54.681Z,19.37
2023-04-12T14:14:57.974Z,18.96
2023-04-12T14:16:01.012Z,18.62
2023-04-12T14:17:04.096Z,18.34
2023-04-12T14:18:07.472Z,18.07
2023-04-12T14:19:10.838Z,17.84
2023-04-12T14:20:14.566Z,17.64
2023-04-12T14:21:18.770Z,17.41
2023-04-12T14:22:21.677Z,17.19
2023-04-12T14:23:26.224Z,16.95
2023-04-12T14:24:29.231Z,16.73
2023-04-12T14:25:32.333Z,16.58
2023-04-12T14:26:35.763Z,16.52
2023-04-12T14:27:38.881Z,16.54
2023-04-12T14:28:42.160Z,16.62
2023-04-12T14:29:45.360Z,16.73
2023-04-12T14:30:51.049Z,16.85
2023-04-12T14:31:54.646Z,17.00
2023-04-12T14:32:57.699Z,17.17
2023-04-12T14:34:01.187Z,17.40
2023-04-12T14:35:05.402Z,17.77
2023-04-12T14:36:09.034Z,18.17
2023-04-12T14:37:12.500Z,18.48
2023-04-12T14:38:15.385Z,18.75
2023-04-12T14:39:18.467Z,18.97
2023-04-12T14:40:21.612Z,19.16
2023-04-12T14:41:24.633Z,19.38
2023-04-12T14:42:27.685Z,19.58
2023-04-12T14:43:30.753Z,19.77
2023-04-12T14:44:33.837Z,19.84
2023-04-12T14:45:37.761Z,19.90
2023-04-12T14:46:40.770Z,20.07
2023-04-12T14:47:43.949Z,20.25
2023-04-12T14:48:47.198Z,20.37
2023-04-12T14:49:50.391Z,20.39
2023-04-12T14:50:55.631Z,20.34
2023-04-12T14:51:59.625Z,20.24
2023-04-12T14:53:02.884Z,20.09
2023-04-12T14:54:05.810Z,19.92
2023-04-12T14:55:10.686Z,19.70
2023-04-12T14:56:22.332Z,19.47
2023-04-12T14:57:27.314Z,19.21
2023-04-12T14:58:30.771Z,18.94
2023-04-12T14:59:34.107Z,18.67
2023-04-12T15:00:38.043Z,18.41
2023-04-12T15:01:41.787Z,18.16
2023-04-12T15:02:46.357Z,17.90
2023-04-12T15:03:51.935Z,17.65
2023-04-12T15:04:55.592Z,17.40
2023-04-12T15:05:59.218Z,17.18
2023-04-12T15:07:02.160Z,16.97
2023-04-12T15:08:05.146Z,16.75
2023-04-12T15:09:10.233Z,16.56
2023-04-12T15:10:16.086Z,16.38
2023-04-12T15:11:19.317Z,16.29
2023-04-12T15:12:22.196Z,16.28
2023-04-12T15:13:33.533Z,16.29
2023-04-12T15:14:38.281Z,16.28
2023-04-12T15:15:41.853Z,16.28
2023-04-12T15:16:46.473Z,16.27
2023-04-12T15:17:49.793Z,16.25
2023-04-12T15:18:52.848Z,16.24
2023-04-12T15:19:56.203Z,16.20
2023-04-12T15:21:00.323Z,16.16
2023-04-12T15:22:03.576Z,16.11
2023-04-12T15:23:06.711Z,16.04
2023-04-12T15:24:09.645Z,16.00
2023-04-12T15:25:12.614Z,15.95
2023-04-12T15:26:15.991Z,15.90
2023-04-12T15:27:19.178Z,15.83
2023-04-12T15:28:22.170Z,15.77
2023-04-12T15:29:28.205Z,15.73
2023-04-12T15:30:32.043Z,15.67
2023-04-12T15:31:35.035Z,15.61
2023-04-12T15:32:39.175Z,15.56
2023-04-12T15:33:44.408Z,15.51
2023-04-12T15:34:47.316Z,15.45
2023-04-12T15:35:50.524Z,15.39
2023-04-12T15:36:53.624Z,15.34
2023-04-12T15:37:56.636Z,15.28
2023-04-12T15:39:00.843Z,15.22
2023-04-12T15:40:13.681Z,15.18
2023-04-12T15:41:16.643Z,15.13
2023-04-12T15:42:20.781Z,15.10
2023-04-12T15:43:25.231Z,15.05
2023-04-12T15:44:32.054Z,15.02
2023-04-12T15:45:35.128Z,14.98
2023-04-12T15:46:39.366Z,14.93
2023-04-12T15:47:42.759Z,14.87
2023-04-12T15:48:45.969Z,14.80
2023-04-12T15:49:48.896Z,14.74
2023-04-12T15:50:54.678Z,14.69
2023-04-12T15:51:58.040Z,14.66
2023-04-12T15:53:01.463Z,14.63
2023-04-12T15:54:04.728Z,14.60
2023-04-12T15:55:11.675Z,14.56
2023-04-12T15:56:17.200Z,14.51
2023-04-12T15:57:20.846Z,14.46
2023-04-12T15:58:24.661Z,14.40
2023-04-12T15:59:29.458Z,14.35
2023-04-12T16:00:33.104Z,14.31
2023-04-12T16:01:36.762Z,14.27
2023-04-12T16:02:40.700Z,14.23
2023-04-12T16:03:47.312Z,14.19
2023-04-12T16:04:51.006Z,14.15
2023-04-12T16:05:54.551Z,14.11
2023-04-12T16:07:02.189Z,14.08
2023-04-12T16:08:05.235Z,14.06
2023-04-12T16:09:08.352Z,14.04
2023-04-12T16:10:11.664Z,14.01
2023-04-12T16:11:19.599Z,13.97
2023-04-12T16:12:22.542Z,13.94
2023-04-12T16:13:25.931Z,13.91
2023-04-12T16:14:29.200Z,13.88
2023-04-12T16:15:33.636Z,13.86
2023-04-12T16:16:40.584Z,13.85
2023-04-12T16:17:45.468Z,13.83
2023-04-12T16:18:49.577Z,13.81
2023-04-12T16:19:54.620Z,13.80
2023-04-12T16:20:58.526Z,13.79
2023-04-12T16:22:02.505Z,13.78
2023-04-12T16:23:06.870Z,13.76
2023-04-12T16:24:11.915Z,13.76
2023-04-12T16:25:20.152Z,13.74
2023-04-12T16:26:24.014Z,13.72
2023-04-12T16:27:29.878Z,13.71
2023-04-12T16:28:37.639Z,13.69
2023-04-12T16:29:41.896Z,13.69
2023-04-12T16:30:46.228Z,13.68
2023-04-12T16:31:51.862Z,13.66
2023-04-12T16:32:55.582Z,13.65
2023-04-12T16:33:58.990Z,13.62
2023-04-12T16:35:02.585Z,13.60
2023-04-12T16:36:06.041Z,13.60
2023-04-12T16:37:09.094Z,13.58
2023-04-12T16:38:14.761Z,13.56
2023-04-12T16:39:19.734Z,13.54
2023-04-12T16:40:24.765Z,13.53
2023-04-12T16:41:27.962Z,13.51
2023-04-12T16:42:31.938Z,13.49
2023-04-12T16:43:35.021Z,13.49
2023-04-12T16:44:38.613Z,13.49
2023-04-12T16:45:45.713Z,13.48
2023-04-12T16:46:49.057Z,13.48
2023-04-12T16:47:52.160Z,13.49
2023-04-12T16:48:55.230Z,13.49
2023-04-12T16:49:58.470Z,13.49
2023-04-12T16:51:03.810Z,13.48
2023-04-12T16:52:07.196Z,13.48
2023-04-12T16:53:11.759Z,13.49
2023-04-12T16:54:14.959Z,13.50
2023-04-12T16:55:17.810Z,13.51
2023-04-12T16:56:21.163Z,13.52
2023-04-12T16:57:24.435Z,13.53
2023-04-12T16:58:28.858Z,13.54
2023-04-12T16:59:33.260Z,13.55
2023-04-12T17:00:37.173Z,13.55
2023-04-12T17:01:40.737Z,13.56
2023-04-12T17:02:43.850Z,13.56
2023-04-12T17:03:47.684Z,13.58
2023-04-12T17:04:51.140Z,13.60
2023-04-12T17:05:54.562Z,13.61
2023-04-12T17:06:59.081Z,13.61
2023-04-12T17:08:05.645Z,13.62
2023-04-12T17:09:09.783Z,13.61
2023-04-12T17:10:13.128Z,13.61
2023-04-12T17:11:16.441Z,13.62
2023-04-12T17:12:19.837Z,13.62
2023-04-12T17:13:22.748Z,13.62
2023-04-12T17:14:29.684Z,13.61
2023-04-12T17:15:32.887Z,13.61
2023-04-12T17:16:36.226Z,13.60
2023-04-12T17:17:39.867Z,13.60
2023-04-12T17:18:43.650Z,13.58
2023-04-12T17:19:46.766Z,13.57
2023-04-12T17:20:49.918Z,13.56
2023-04-12T17:21:53.104Z,13.56
2023-04-12T17:22:57.618Z,13.55
2023-04-12T17:24:01.282Z,13.54
2023-04-12T17:25:06.931Z,13.55
2023-04-12T17:26:10.293Z,13.55
2023-04-12T17:27:13.192Z,13.54
2023-04-12T17:28:16.572Z,13.53
2023-04-12T17:29:20.466Z,13.52
2023-04-12T17:30:24.031Z,13.51
2023-04-12T17:31:29.367Z,13.51
2023-04-12T17:32:33.887Z,13.50
2023-04-12T17:33:37.827Z,13.49
2023-04-12T17:34:42.526Z,13.49
2023-04-12T17:35:46.591Z,13.48
2023-04-12T17:36:50.327Z,13.48
2023-04-12T17:37:53.560Z,13.46
2023-04-12T17:38:58.299Z,13.45
2023-04-12T17:40:03.948Z,13.44
2023-04-12T17:41:09.247Z,13.42
2023-04-12T17:42:13.097Z,13.41
2023-04-12T17:43:16.000Z,13.38
2023-04-12T17:44:19.242Z,13.37
2023-04-12T17:45:23.669Z,13.36
2023-04-12T17:46:27.543Z,13.33
2023-04-12T17:47:32.634Z,13.30
2023-04-12T17:48:37.102Z,13.25
2023-04-12T17:49:41.178Z,13.21
2023-04-12T17:50:45.407Z,13.14
2023-04-12T17:51:48.538Z,13.11
2023-04-12T17:52:51.979Z,13.06
2023-04-12T17:53:57.003Z,13.01
2023-04-12T17:55:00.310Z,12.98
2023-04-12T17:56:04.555Z,12.93
2023-04-12T17:57:07.841Z,12.88
2023-04-12T17:58:11.100Z,12.83
2023-04-12T17:59:14.316Z,12.78
2023-04-12T18:00:19.171Z,12.74
2023-04-12T18:01:22.330Z,12.70
2023-04-12T18:02:26.270Z,12.67
2023-04-12T18:03:29.839Z,12.64
2023-04-12T18:04:33.885Z,12.61
2023-04-12T18:05:37.416Z,12.59
2023-04-12T18:06:42.013Z,12.58
2023-04-12T18:07:45.291Z,12.57
2023-04-12T18:08:48.795Z,12.55
2023-04-12T18:09:52.380Z,12.52
2023-04-12T18:10:55.480Z,12.50
2023-04-12T18:11:58.443Z,12.49
2023-04-12T18:13:01.551Z,12.47
2023-04-12T18:14:07.383Z,12.45
2023-04-12T18:15:11.500Z,12.44
2023-04-12T18:16:14.483Z,12.41
2023-04-12T18:17:17.413Z,12.39
2023-04-12T18:18:20.494Z,12.38
2023-04-12T18:19:23.888Z,12.37
2023-04-12T18:20:27.621Z,12.35
2023-04-12T18:21:32.577Z,12.35
2023-04-12T18:22:35.599Z,12.34
2023-04-12T18:23:38.663Z,12.33
2023-04-12T18:24:42.487Z,12.33
2023-04-12T18:25:45.540Z,12.33
2023-04-12T18:26:49.847Z,12.33
2023-04-12T18:27:52.835Z,12.33
2023-04-12T18:28:56.538Z,12.34
2023-04-12T18:30:01.511Z,12.34
2023-04-12T18:31:04.659Z,12.34
2023-04-12T18:32:08.252Z,12.36
2023-04-12T18:33:11.545Z,12.35
2023-04-12T18:34:14.979Z,12.36
2023-04-12T18:35:18.281Z,12.37
2023-04-12T18:36:21.332Z,12.37
2023-04-12T18:37:24.461Z,12.37
2023-04-12T18:38:33.690Z,12.36
2023-04-12T18:39:37.082Z,12.36
2023-04-12T18:40:40.119Z,12.37
2023-04-12T18:41:43.092Z,12.37
2023-04-12T18:42:46.229Z,12.38
2023-04-12T18:43:49.182Z,12.38
2023-04-12T18:44:52.506Z,12.38
2023-04-12T18:45:56.125Z,12.38
2023-04-12T18:46:59.568Z,12.39
2023-04-12T18:48:04.448Z,12.38
2023-04-12T18:49:09.198Z,12.38
2023-04-12T18:50:12.476Z,12.37
2023-04-12T18:51:15.610Z,12.37
2023-04-12T18:52:18.528Z,12.37
2023-04-12T18:53:21.990Z,12.36
2023-04-12T18:54:27.774Z,12.36
2023-04-12T18:55:31.409Z,12.35
2023-04-12T18:56:34.694Z,12.35
2023-04-12T18:57:37.793Z,12.34
2023-04-12T18:58:54.454Z,12.33
2023-04-12T18:59:58.350Z,12.32
2023-04-12T19:01:01.723Z,12.29
2023-04-12T19:02:05.091Z,12.29
2023-04-12T19:03:08.338Z,12.26
2023-04-12T19:04:12.408Z,12.25
2023-04-12T19:05:15.777Z,12.23
2023-04-12T19:06:19.476Z,12.21
2023-04-12T19:07:22.874Z,12.18
2023-04-12T19:08:26.687Z,12.16
2023-04-12T19:09:29.656Z,12.14
2023-04-12T19:10:32.590Z,12.13
2023-04-12T19:11:37.193Z,12.12
2023-04-12T19:12:40.186Z,12.10
2023-04-12T19:13:43.238Z,12.09
2023-04-12T19:14:46.841Z,12.07
2023-04-12T19:15:49.889Z,12.06